createdAt,value
2019-06-10T00:01:14.059Z,2.30
2019-06-10T00:03:42.103Z,2.20
2019-06-10T00:06:11.337Z,2.55
2019-06-10T00:08:37.192Z,2.02
2019-06-10T00:11:05.059Z,2.77
2019-06-10T00:13:32.093Z,2.50
2019-06-10T00:16:01.298Z,2.50
2019-06-10T00:18:38.299Z,2.55
2019-06-10T00:20:55.639Z,2.90
2019-06-10T00:23:21.976Z,2.10
2019-06-10T00:25:48.585Z,2.60
2019-06-10T00:28:15.130Z,2.50
2019-06-10T00:30:41.743Z,2.05
2019-06-10T00:33:11.591Z,2.35
2019-06-10T00:35:36.727Z,2.35
2019-06-10T00:38:06.905Z,2.22
2019-06-10T00:40:31.976Z,2.10
2019-06-10T00:43:00.076Z,2.58
2019-06-10T00:45:27.051Z,2.17
2019-06-10T00:48:08.597Z,2.90
2019-06-10T00:50:21.889Z,2.52
2019-06-10T00:52:48.313Z,2.02
2019-06-10T00:55:14.737Z,2.45
2019-06-10T00:57:41.867Z,3.10
2019-06-10T01:00:19.294Z,2.10
2019-06-10T01:02:37.140Z,2.45
2019-06-10T01:05:05.083Z,2.45
2019-06-10T01:07:31.824Z,2.45
2019-06-10T01:09:58.258Z,2.50
2019-06-10T01:12:25.034Z,2.30
2019-06-10T01:14:51.668Z,2.47
2019-06-10T01:17:18.634Z,2.65
2019-06-10T01:19:45.237Z,2.25
2019-06-10T01:22:13.779Z,2.85
2019-06-10T01:24:40.801Z,2.45
2019-06-10T01:27:07.546Z,2.35
2019-06-10T01:29:35.605Z,1.92
2019-06-10T01:32:02.616Z,2.52
2019-06-10T01:34:31.104Z,2.20
2019-06-10T01:36:57.563Z,1.87
2019-06-10T01:39:23.899Z,2.40
2019-06-10T01:41:51.238Z,2.37
2019-06-10T01:44:17.889Z,2.37
2019-06-10T01:46:44.353Z,2.30
2019-06-10T01:49:12.026Z,2.33
2019-06-10T01:51:41.122Z,1.92
2019-06-10T01:54:11.960Z,2.20
2019-06-10T01:56:35.814Z,2.08
2019-06-10T01:59:02.319Z,2.30
2019-06-10T02:01:42.980Z,2.55
2019-06-10T02:04:11.598Z,2.60
2019-06-10T02:06:37.536Z,2.37
2019-06-10T02:09:06.203Z,2.27
2019-06-10T02:11:36.120Z,2.10
2019-06-10T02:14:04.971Z,1.95
2019-06-10T02:16:32.534Z,2.60
2019-06-10T02:19:03.424Z,2.50
2019-06-10T02:21:27.588Z,2.55
2019-06-10T02:23:54.113Z,2.70
2019-06-10T02:26:23.283Z,2.50
2019-06-10T02:28:51.126Z,2.25
2019-06-10T02:31:21.540Z,2.67
2019-06-10T02:33:45.408Z,2.50
2019-06-10T02:36:15.952Z,2.80
2019-06-10T02:38:40.418Z,2.75
2019-06-10T02:41:07.344Z,2.30
2019-06-10T02:43:37.656Z,2.50
2019-06-10T02:46:04.958Z,2.08
2019-06-10T02:48:35.076Z,2.50
2019-06-10T02:51:04.972Z,2.92
2019-06-10T02:53:36.186Z,2.50
2019-06-10T02:56:03.994Z,3.08
2019-06-10T02:58:34.213Z,3.00
2019-06-10T03:00:57.730Z,2.37
2019-06-10T03:03:35.856Z,2.62
2019-06-10T03:05:53.861Z,2.70
2019-06-10T03:08:26.606Z,3.12
2019-06-10T03:10:49.731Z,2.42
2019-06-10T03:13:17.573Z,2.60
2019-06-10T03:15:46.622Z,2.27
2019-06-10T03:18:13.138Z,2.92
2019-06-10T03:20:39.578Z,2.52
2019-06-10T03:23:06.084Z,2.20
2019-06-10T03:25:33.055Z,2.58
2019-06-10T03:28:02.957Z,2.40
2019-06-10T03:30:44.948Z,2.17
2019-06-10T03:32:58.398Z,2.52
2019-06-10T03:35:26.875Z,2.37
2019-06-10T03:37:54.310Z,2.52
2019-06-10T03:40:23.510Z,2.87
2019-06-10T03:42:49.363Z,2.50
2019-06-10T03:45:17.571Z,2.52
2019-06-10T03:47:44.174Z,2.30
2019-06-10T03:50:13.220Z,2.83
2019-06-10T03:52:39.876Z,2.65
2019-06-10T03:55:06.777Z,2.95
2019-06-10T03:57:33.983Z,2.45
2019-06-10T04:00:03.497Z,2.80
2019-06-10T04:02:29.395Z,2.70
2019-06-10T04:04:56.235Z,2.52
2019-06-10T04:07:27.418Z,2.60
2019-06-10T04:09:52.617Z,2.62
2019-06-10T04:12:19.582Z,2.52
2019-06-10T04:14:46.073Z,2.98
2019-06-10T04:17:13.222Z,2.58
2019-06-10T04:19:41.976Z,3.00
2019-06-10T04:22:08.323Z,2.50
2019-06-10T04:24:34.797Z,2.67
2019-06-10T04:27:02.787Z,2.40
2019-06-10T04:29:32.512Z,2.70
2019-06-10T04:31:59.063Z,2.58
2019-06-10T04:34:28.628Z,2.72
2019-06-10T04:36:54.211Z,2.87
2019-06-10T04:39:23.353Z,2.65
2019-06-10T04:41:50.203Z,2.60
2019-06-10T04:44:18.590Z,2.30
2019-06-10T04:46:45.507Z,2.70
2019-06-10T04:49:13.124Z,2.87
2019-06-10T04:51:40.447Z,2.80
2019-06-10T04:54:06.955Z,2.50
2019-06-10T04:56:34.040Z,3.33
2019-06-10T04:59:02.929Z,3.05
2019-06-10T05:01:30.156Z,2.62
2019-06-10T05:03:56.816Z,2.60
2019-06-10T05:06:25.351Z,3.62
2019-06-10T05:08:53.717Z,2.40
2019-06-10T05:11:21.713Z,3.00
2019-06-10T05:13:48.879Z,2.45
2019-06-10T05:16:15.917Z,2.80
2019-06-10T05:18:43.117Z,2.52
2019-06-10T05:21:12.591Z,2.90
2019-06-10T05:23:39.031Z,2.50
2019-06-10T05:26:05.462Z,2.77
2019-06-10T05:28:34.143Z,3.08
2019-06-10T05:31:02.527Z,2.72
2019-06-10T05:33:28.909Z,2.83
2019-06-10T05:35:55.476Z,3.20
2019-06-10T05:38:23.997Z,2.98
2019-06-10T05:40:52.142Z,2.20
2019-06-10T05:43:18.692Z,2.55
2019-06-10T05:45:45.201Z,2.37
2019-06-10T05:48:16.242Z,2.55
2019-06-10T05:50:42.665Z,3.05
2019-06-10T05:53:09.129Z,2.98
2019-06-10T05:55:36.107Z,2.50
2019-06-10T05:58:03.441Z,2.25
2019-06-10T06:00:32.444Z,2.72
2019-06-10T06:02:58.770Z,2.90
2019-06-10T06:05:26.032Z,2.95
2019-06-10T06:08:03.255Z,2.87
2019-06-10T06:10:22.257Z,2.58
2019-06-10T06:12:49.440Z,2.85
2019-06-10T06:15:16.317Z,2.95
2019-06-10T06:17:43.362Z,3.20
2019-06-10T06:20:10.356Z,3.47
2019-06-10T06:22:37.751Z,2.90
2019-06-10T06:25:08.419Z,2.60
2019-06-10T06:27:36.399Z,3.00
2019-06-10T06:30:11.112Z,2.70
2019-06-10T06:32:36.333Z,3.27
2019-06-10T06:35:04.066Z,3.37
2019-06-10T06:37:34.709Z,2.90
2019-06-10T06:39:59.396Z,2.95
2019-06-10T06:42:27.370Z,3.10
2019-06-10T06:44:54.200Z,2.70
2019-06-10T06:47:22.648Z,2.70
2019-06-10T06:49:49.203Z,2.83
2019-06-10T06:52:15.745Z,2.90
2019-06-10T06:54:43.842Z,2.67
2019-06-10T06:57:12.897Z,2.75
2019-06-10T06:59:40.842Z,2.87
2019-06-10T07:02:08.295Z,2.58
2019-06-10T07:04:35.925Z,2.92
2019-06-10T07:07:03.974Z,2.62
2019-06-10T07:09:34.314Z,2.77
2019-06-10T07:12:03.900Z,2.85
2019-06-10T07:14:36.770Z,2.75
2019-06-10T07:17:04.003Z,2.77
2019-06-10T07:19:30.187Z,2.40
2019-06-10T07:22:08.729Z,2.35
2019-06-10T07:24:25.246Z,2.50
2019-06-10T07:26:54.876Z,2.42
2019-06-10T07:29:22.423Z,2.70
2019-06-10T07:31:50.253Z,2.60
2019-06-10T07:34:17.275Z,2.40
2019-06-10T07:36:45.484Z,2.62
2019-06-10T07:39:13.451Z,2.52
2019-06-10T07:41:42.027Z,2.50
2019-06-10T07:44:08.847Z,2.35
2019-06-10T07:46:36.638Z,2.55
2019-06-10T07:49:04.710Z,2.42
2019-06-10T07:51:32.884Z,2.58
2019-06-10T07:54:03.076Z,2.62
2019-06-10T07:56:33.845Z,2.40
2019-06-10T07:58:57.607Z,2.72
2019-06-10T08:01:26.277Z,2.08
2019-06-10T08:03:53.084Z,2.50
2019-06-10T08:06:19.607Z,2.62
2019-06-10T08:08:47.272Z,2.33
2019-06-10T08:11:14.295Z,2.72
2019-06-10T08:13:45.581Z,2.65
2019-06-10T08:16:09.589Z,2.60
2019-06-10T08:18:44.536Z,2.65
2019-06-10T08:21:04.622Z,2.58
2019-06-10T08:23:32.730Z,2.42
2019-06-10T08:26:03.163Z,2.90
2019-06-10T08:28:29.058Z,2.72
2019-06-10T08:30:55.836Z,2.67
2019-06-10T08:33:22.849Z,2.60
2019-06-10T08:35:57.393Z,2.62
2019-06-10T08:38:18.315Z,2.50
2019-06-10T08:40:47.980Z,2.52
2019-06-10T08:43:13.993Z,2.75
2019-06-10T08:45:43.323Z,2.50
2019-06-10T08:48:10.032Z,2.52
2019-06-10T08:50:37.646Z,2.62
2019-06-10T08:53:13.696Z,2.70
2019-06-10T08:55:33.784Z,2.58
2019-06-10T08:58:02.799Z,2.37
2019-06-10T09:00:33.216Z,2.40
2019-06-10T09:03:03.813Z,2.65
2019-06-10T09:05:29.467Z,2.40
2019-06-10T09:07:56.299Z,2.58
2019-06-10T09:10:23.240Z,2.60
2019-06-10T09:12:53.693Z,2.47
2019-06-10T09:15:19.380Z,2.67
2019-06-10T09:17:49.273Z,2.42
2019-06-10T09:20:15.015Z,2.72
2019-06-10T09:22:44.898Z,2.80
2019-06-10T09:25:12.371Z,2.37
2019-06-10T09:27:40.176Z,2.80
2019-06-10T09:30:13.306Z,2.40
2019-06-10T09:32:46.571Z,2.80
2019-06-10T09:35:12.618Z,3.22
2019-06-10T09:37:39.978Z,2.80
2019-06-10T09:40:08.931Z,3.12
2019-06-10T09:42:35.869Z,3.20
2019-06-10T09:45:09.647Z,3.37
2019-06-10T09:47:37.569Z,2.77
2019-06-10T09:50:06.802Z,2.33
2019-06-10T09:52:33.387Z,2.67
2019-06-10T09:55:02.556Z,2.47
2019-06-10T09:57:29.104Z,3.05
2019-06-10T09:59:56.681Z,2.75
2019-06-10T10:02:23.449Z,2.62
2019-06-10T10:04:53.886Z,2.62
2019-06-10T10:07:19.009Z,2.77
2019-06-10T10:09:49.841Z,2.75
2019-06-10T10:12:14.404Z,2.62
2019-06-10T10:14:44.452Z,2.70
2019-06-10T10:17:12.686Z,2.98
2019-06-10T10:19:38.370Z,2.50
2019-06-10T10:22:05.236Z,2.47
2019-06-10T10:24:34.106Z,2.90
2019-06-10T10:27:02.617Z,3.10
2019-06-10T10:29:29.526Z,3.00
2019-06-10T10:31:56.758Z,3.00
2019-06-10T10:34:23.743Z,2.60
2019-06-10T10:36:55.428Z,4.55
2019-06-10T10:39:23.812Z,3.00
2019-06-10T10:41:48.693Z,2.92
2019-06-10T10:44:16.793Z,2.65
2019-06-10T10:46:44.219Z,2.47
2019-06-10T10:49:13.202Z,2.55
2019-06-10T10:51:40.897Z,2.45
2019-06-10T10:54:22.422Z,2.87
2019-06-10T10:56:36.217Z,2.52
2019-06-10T10:59:04.571Z,2.40
2019-06-10T11:01:33.149Z,2.52
2019-06-10T11:04:02.796Z,2.67
2019-06-10T11:06:28.510Z,2.77
2019-06-10T11:08:57.744Z,2.70
2019-06-10T11:11:26.397Z,2.80
2019-06-10T11:13:58.173Z,2.83
2019-06-10T11:16:24.795Z,2.00
2019-06-10T11:18:54.133Z,2.50
2019-06-10T11:21:22.714Z,2.50
2019-06-10T11:23:50.113Z,2.67
2019-06-10T11:26:16.746Z,2.52
2019-06-10T11:28:43.555Z,2.37
2019-06-10T11:31:10.371Z,2.20
2019-06-10T11:33:36.820Z,2.58
2019-06-10T11:36:03.402Z,2.67
2019-06-10T11:38:32.588Z,2.60
2019-06-10T11:41:00.158Z,2.67
2019-06-10T11:43:27.103Z,2.65
2019-06-10T11:45:59.839Z,2.90
2019-06-10T11:48:23.791Z,2.08
2019-06-10T11:50:53.922Z,2.70
2019-06-10T11:53:19.438Z,2.22
2019-06-10T11:55:47.607Z,2.37
2019-06-10T11:58:17.890Z,2.60
2019-06-10T12:00:45.034Z,2.40
2019-06-10T12:03:13.116Z,2.45
2019-06-10T12:05:40.076Z,2.35
2019-06-10T12:08:06.754Z,2.35
2019-06-10T12:10:34.071Z,2.00
2019-06-10T12:13:06.193Z,2.27
2019-06-10T12:15:32.261Z,3.12
2019-06-10T12:18:05.247Z,3.00
2019-06-10T12:20:28.586Z,2.67
2019-06-10T12:22:58.321Z,2.70
2019-06-10T12:25:32.455Z,2.40
2019-06-10T12:27:55.841Z,2.85
2019-06-10T12:30:22.320Z,2.40
2019-06-10T12:32:50.517Z,2.70
2019-06-10T12:35:18.123Z,2.80
2019-06-10T12:37:45.217Z,2.75
2019-06-10T12:40:14.663Z,2.92
2019-06-10T12:42:41.595Z,3.15
2019-06-10T12:45:12.596Z,2.87
2019-06-10T12:47:38.916Z,3.12
2019-06-10T12:50:08.044Z,3.20
2019-06-10T12:52:34.924Z,3.33
2019-06-10T12:55:02.421Z,2.47
2019-06-10T12:57:32.430Z,3.05
2019-06-10T13:00:01.192Z,3.30
2019-06-10T13:02:34.052Z,3.20
2019-06-10T13:04:57.750Z,2.77
2019-06-10T13:07:24.267Z,2.90
2019-06-10T13:09:55.542Z,3.33
2019-06-10T13:12:22.955Z,3.58
2019-06-10T13:14:57.815Z,3.05
2019-06-10T13:17:27.025Z,3.20
2019-06-10T13:19:53.496Z,2.65
2019-06-10T13:22:20.416Z,2.98
2019-06-10T13:24:48.683Z,3.30
2019-06-10T13:27:16.764Z,3.70
2019-06-10T13:29:47.461Z,2.62
2019-06-10T13:32:15.231Z,2.60
2019-06-10T13:34:42.543Z,2.55
2019-06-10T13:37:14.921Z,2.80
2019-06-10T13:39:40.040Z,2.70
2019-06-10T13:42:09.711Z,2.42
2019-06-10T13:44:36.435Z,2.60
2019-06-10T13:47:07.072Z,2.10
2019-06-10T13:49:33.223Z,2.77
2019-06-10T13:52:04.730Z,2.50
2019-06-10T13:54:28.917Z,2.52
2019-06-10T13:56:55.801Z,2.40
2019-06-10T13:59:23.074Z,2.20
2019-06-10T14:01:52.579Z,2.70
2019-06-10T14:04:25.203Z,2.60
2019-06-10T14:06:50.532Z,2.80
2019-06-10T14:09:16.920Z,2.58
2019-06-10T14:11:43.294Z,2.35
2019-06-10T14:14:10.024Z,2.50
2019-06-10T14:16:36.801Z,2.80
2019-06-10T14:19:05.857Z,2.67
2019-06-10T14:21:33.119Z,2.55
2019-06-10T14:24:00.173Z,2.50
2019-06-10T14:26:37.897Z,2.35
2019-06-10T14:28:56.133Z,2.33
2019-06-10T14:31:39.108Z,3.83
2019-06-10T14:33:53.224Z,3.10
2019-06-10T14:36:22.160Z,2.52
2019-06-10T14:38:48.513Z,2.60
2019-06-10T14:41:15.429Z,2.60
2019-06-10T14:43:42.639Z,2.05
2019-06-10T14:46:13.546Z,2.60
2019-06-10T14:48:38.666Z,2.33
2019-06-10T14:51:05.451Z,2.45
2019-06-10T14:53:33.675Z,2.55
2019-06-10T14:56:03.313Z,2.55
2019-06-10T14:58:28.989Z,2.80
2019-06-10T15:00:55.646Z,2.80
2019-06-10T15:03:22.954Z,3.10
2019-06-10T15:05:52.669Z,2.77
2019-06-10T15:08:19.663Z,2.50
2019-06-10T15:10:46.792Z,2.60
2019-06-10T15:13:13.850Z,3.10
2019-06-10T15:15:42.487Z,2.65
2019-06-10T15:18:09.427Z,2.77
2019-06-10T15:20:35.857Z,2.65
2019-06-10T15:23:02.761Z,2.58
2019-06-10T15:25:43.768Z,2.90
2019-06-10T15:27:57.983Z,3.15
2019-06-10T15:30:27.985Z,3.17
2019-06-10T15:32:52.875Z,2.40
2019-06-10T15:35:23.744Z,2.77
2019-06-10T15:37:49.227Z,2.75
2019-06-10T15:40:18.213Z,2.83
2019-06-10T15:42:44.920Z,3.00
2019-06-10T15:45:14.759Z,3.05
2019-06-10T15:47:42.676Z,2.60
2019-06-10T15:50:10.014Z,2.60
2019-06-10T15:52:37.234Z,2.65
2019-06-10T15:55:05.257Z,2.62
2019-06-10T15:57:40.704Z,2.58
2019-06-10T15:59:59.924Z,3.05
2019-06-10T16:02:26.341Z,2.80
2019-06-10T16:04:53.043Z,2.98
2019-06-10T16:07:20.941Z,2.80
2019-06-10T16:09:48.014Z,2.95
2019-06-10T16:12:16.670Z,2.77
2019-06-10T16:14:43.181Z,2.87
2019-06-10T16:17:12.470Z,2.70
2019-06-10T16:19:38.324Z,3.12
2019-06-10T16:22:04.972Z,2.75
2019-06-10T16:24:33.226Z,2.52
2019-06-10T16:26:59.959Z,2.55
2019-06-10T16:29:28.806Z,2.40
2019-06-10T16:31:55.762Z,2.62
2019-06-10T16:34:27.338Z,2.70
2019-06-10T16:36:53.085Z,3.00
2019-06-10T16:39:19.541Z,2.72
2019-06-10T16:41:46.436Z,2.83
2019-06-10T16:44:13.744Z,2.60
2019-06-10T16:46:42.936Z,2.75
2019-06-10T16:49:09.264Z,2.80
2019-06-10T16:51:36.279Z,2.60
2019-06-10T16:54:03.416Z,2.72
2019-06-10T16:56:30.997Z,2.50
2019-06-10T16:58:58.503Z,2.47
2019-06-10T17:01:28.270Z,2.60
2019-06-10T17:03:53.715Z,2.27
2019-06-10T17:06:22.464Z,2.62
2019-06-10T17:08:49.235Z,2.70
2019-06-10T17:11:15.587Z,2.40
2019-06-10T17:13:42.379Z,2.50
2019-06-10T17:16:09.090Z,2.58
2019-06-10T17:18:35.591Z,2.80
2019-06-10T17:21:03.879Z,2.52
2019-06-10T17:23:35.455Z,2.67
2019-06-10T17:25:59.168Z,2.45
2019-06-10T17:28:30.666Z,2.50
2019-06-10T17:30:56.105Z,2.37
2019-06-10T17:33:25.412Z,2.30
2019-06-10T17:35:52.440Z,3.30
2019-06-10T17:38:20.472Z,3.60
2019-06-10T17:40:47.284Z,2.45
2019-06-10T17:43:13.886Z,2.75
2019-06-10T17:45:42.214Z,2.47
2019-06-10T17:48:09.041Z,2.30
2019-06-10T17:50:35.510Z,2.60
2019-06-10T17:53:02.664Z,2.10
2019-06-10T17:55:33.236Z,2.12
2019-06-10T17:57:57.930Z,2.42
2019-06-10T18:00:26.134Z,2.60
2019-06-10T18:02:53.724Z,2.17
2019-06-10T18:05:22.521Z,2.50
2019-06-10T18:07:49.069Z,2.10
2019-06-10T18:10:17.095Z,2.47
2019-06-10T18:12:44.362Z,2.33
2019-06-10T18:15:12.571Z,2.00
2019-06-10T18:17:39.148Z,2.62
2019-06-10T18:20:07.307Z,2.17
2019-06-10T18:22:36.762Z,2.60
2019-06-10T18:25:05.683Z,2.40
2019-06-10T18:27:34.048Z,2.65
2019-06-10T18:30:02.492Z,2.80
2019-06-10T18:32:32.855Z,2.50
2019-06-10T18:35:02.761Z,2.65
2019-06-10T18:37:28.396Z,2.70
2019-06-10T18:39:55.069Z,2.87
2019-06-10T18:42:23.518Z,2.83
2019-06-10T18:44:52.107Z,3.40
2019-06-10T18:47:18.153Z,2.80
2019-06-10T18:49:44.991Z,3.40
2019-06-10T18:52:12.673Z,3.65
2019-06-10T18:54:40.422Z,2.67
2019-06-10T18:57:07.594Z,3.10
2019-06-10T18:59:36.702Z,3.20
2019-06-10T19:02:06.332Z,3.35
2019-06-10T19:04:35.203Z,3.62
2019-06-10T19:07:02.858Z,3.20
2019-06-10T19:09:29.467Z,3.50
2019-06-10T19:11:56.332Z,3.87
2019-06-10T19:14:22.631Z,3.90
2019-06-10T19:16:52.442Z,3.47
2019-06-10T19:19:18.820Z,3.50
2019-06-10T19:21:49.128Z,3.72
2019-06-10T19:24:13.814Z,4.30
2019-06-10T19:26:44.858Z,3.58
2019-06-10T19:29:09.477Z,3.77
2019-06-10T19:31:38.937Z,4.40
2019-06-10T19:34:04.291Z,4.15
2019-06-10T19:36:31.839Z,3.95
2019-06-10T19:38:58.233Z,4.05
2019-06-10T19:41:24.735Z,4.42
2019-06-10T19:43:52.974Z,4.30
2019-06-10T19:46:19.402Z,4.33
2019-06-10T19:48:56.592Z,4.75
2019-06-10T19:51:14.312Z,4.42
2019-06-10T19:53:43.811Z,5.25
2019-06-10T19:56:09.602Z,4.60
2019-06-10T19:58:36.238Z,4.40
2019-06-10T20:01:04.496Z,4.15
2019-06-10T20:03:33.833Z,4.65
2019-06-10T20:05:59.574Z,4.40
2019-06-10T20:08:26.318Z,4.08
2019-06-10T20:10:53.244Z,4.87
2019-06-10T20:13:20.045Z,4.12
2019-06-10T20:15:47.057Z,4.70
2019-06-10T20:18:14.798Z,4.35
2019-06-10T20:20:45.627Z,3.85
2019-06-10T20:23:09.829Z,3.83
2019-06-10T20:25:36.445Z,4.12
2019-06-10T20:28:03.156Z,3.92
2019-06-10T20:30:29.617Z,3.95
2019-06-10T20:32:56.685Z,4.10
2019-06-10T20:35:23.529Z,4.50
2019-06-10T20:37:53.897Z,4.37
2019-06-10T20:40:20.122Z,4.22
2019-06-10T20:42:46.632Z,4.53
2019-06-10T20:45:13.383Z,4.30
2019-06-10T20:47:43.060Z,4.17
2019-06-10T20:50:09.296Z,4.35
2019-06-10T20:52:35.649Z,4.72
2019-06-10T20:55:03.473Z,4.55
2019-06-10T20:57:30.049Z,5.20
2019-06-10T20:59:56.490Z,4.70
2019-06-10T21:02:23.699Z,4.50
2019-06-10T21:04:53.051Z,4.85
2019-06-10T21:07:23.174Z,5.12
2019-06-10T21:09:53.420Z,4.28
2019-06-10T21:12:22.180Z,4.33
2019-06-10T21:14:48.762Z,4.17
2019-06-10T21:17:16.221Z,5.00
2019-06-10T21:19:44.364Z,4.45
2019-06-10T21:22:12.879Z,4.55
2019-06-10T21:24:40.416Z,4.85
2019-06-10T21:27:06.902Z,4.67
2019-06-10T21:29:33.906Z,4.65
2019-06-10T21:32:03.304Z,4.70
2019-06-10T21:34:29.185Z,4.35
2019-06-10T21:36:56.041Z,4.62
2019-06-10T21:39:22.950Z,4.12
2019-06-10T21:41:49.936Z,4.25
2019-06-10T21:44:16.641Z,3.92
2019-06-10T21:46:44.652Z,3.62
2019-06-10T21:49:12.807Z,3.72
2019-06-10T21:51:39.253Z,3.72
2019-06-10T21:54:05.876Z,3.47
2019-06-10T21:56:32.813Z,3.65
2019-06-10T21:58:59.390Z,3.65
2019-06-10T22:01:26.397Z,4.00
2019-06-10T22:03:59.918Z,4.35
2019-06-10T22:06:22.809Z,4.12
2019-06-10T22:08:50.055Z,3.70
2019-06-10T22:11:17.143Z,4.08
2019-06-10T22:13:44.057Z,4.25
2019-06-10T22:16:10.549Z,3.80
2019-06-10T22:18:37.001Z,3.87
2019-06-10T22:21:03.630Z,3.95
2019-06-10T22:23:30.096Z,4.95
2019-06-10T22:25:57.694Z,4.12
2019-06-10T22:28:24.424Z,4.17
2019-06-10T22:31:04.558Z,4.20
2019-06-10T22:33:22.588Z,4.37
2019-06-10T22:35:49.562Z,4.50
2019-06-10T22:38:15.976Z,4.75
2019-06-10T22:40:43.073Z,4.00
2019-06-10T22:43:09.516Z,4.95
2019-06-10T22:45:36.172Z,4.30
2019-06-10T22:48:03.121Z,4.47
2019-06-10T22:50:32.115Z,4.53
2019-06-10T22:52:58.144Z,4.40
2019-06-10T22:55:24.781Z,4.60
2019-06-10T22:57:54.705Z,4.20
2019-06-10T23:00:22.238Z,4.70
2019-06-10T23:02:49.792Z,4.12
2019-06-10T23:05:17.430Z,5.12
2019-06-10T23:07:44.065Z,5.08
2019-06-10T23:10:12.328Z,5.62
2019-06-10T23:12:39.511Z,5.45
2019-06-10T23:15:06.262Z,5.85
2019-06-10T23:17:32.786Z,5.08
2019-06-10T23:19:59.744Z,5.67
2019-06-10T23:22:26.394Z,5.10
2019-06-10T23:24:54.230Z,5.20
2019-06-10T23:27:22.300Z,5.90
2019-06-10T23:29:49.956Z,5.97
2019-06-10T23:32:17.139Z,5.55
2019-06-10T23:34:43.459Z,5.85
2019-06-10T23:37:12.391Z,6.53
2019-06-10T23:39:38.098Z,6.30
2019-06-10T23:42:04.804Z,7.12
2019-06-10T23:44:32.981Z,6.90
2019-06-10T23:47:02.394Z,7.30
2019-06-10T23:49:28.054Z,7.37
2019-06-10T23:51:56.036Z,7.45
2019-06-10T23:54:23.414Z,8.40
2019-06-10T23:56:49.735Z,8.70
2019-06-10T23:59:16.880Z,9.20
